Data for 09/24/2015

Time Sea-Level Adjusted Pressure Absolute Pressure Temperature Relative Humidity Dew Point   
(mb) (inHg) (mb) (inHg) (C) (F) (%) (C) (F)
00:05 1022 30.18 851 25.13 15 59 36 0.1 32.1
00:10 1022 30.18 851 25.13 14.7 58.5 37 0.2 32.3
00:15 1022 30.18 851 25.13 14.1 57.4 40 0.9 33.6
00:20 1022 30.18 852 25.16 13.5 56.2 42 0.7 33.3
00:25 1022 30.18 852 25.16 13.2 55.8 43 1.1 33.9
00:30 1023 30.21 852 25.16 12.5 54.5 47 1.6 34.8
00:35 1023 30.21 852 25.16 12 53.5 48 1.4 34.6
00:40 1023 30.21 852 25.16 11.8 53.3 47 0.9 33.7
00:45 1023 30.21 852 25.16 12.3 54.1 45 0.8 33.5
00:50 1023 30.21 852 25.16 12.5 54.5 45 0.9 33.5
00:55 1023 30.21 852 25.16 12.6 54.7 45 1 33.8
01:00 1023 30.21 852 25.16 12.9 55.1 44 1 33.7
01:05 1023 30.21 852 25.16 13.2 55.8 44 1.3 34.3
01:10 1023 30.21 852 25.16 13.5 56.3 44 1.5 34.7
01:15 1023 30.21 852 25.16 13.8 56.9 43 1.6 34.8
01:20 1023 30.21 852 25.16 14 57.1 44 1.9 35.4
01:25 1023 30.21 852 25.16 14 57.1 44 2 35.6
01:30 1023 30.21 852 25.16 13.8 56.8 44 1.8 35.3
01:35 1023 30.21 852 25.16 14.1 57.3 43 1.8 35.2
01:40 1023 30.21 852 25.16 14.2 57.5 42 1.7 35
01:45 1023 30.21 852 25.16 14.4 58 41 1.4 34.5
01:50 1023 30.21 852 25.16 14.5 58 43 2 35.6
01:55 1023 30.21 852 25.16 13.6 56.4 45 1.9 35.5
02:00 1023 30.21 853 25.19 12.8 55 45 1.2 34.1
02:05 1023 30.21 853 25.19 12.8 55 45 1.1 34
02:10 1023 30.21 853 25.19 12.9 55.3 44 1.2 34.1
02:15 1024 30.24 853 25.19 12.9 55.2 44 1.1 33.9
02:20 1024 30.24 853 25.19 12.9 55.3 45 1.2 34.2
02:25 1024 30.24 853 25.19 13 55.5 45 1.4 34.5
02:30 1024 30.24 853 25.19 12.9 55.2 46 1.5 34.7
02:35 1024 30.24 853 25.19 12.7 54.8 46 1.5 34.6
02:40 1024 30.24 853 25.19 12.6 54.6 47 1.5 34.7
02:45 1024 30.24 853 25.19 12.6 54.7 46 1.5 34.7
02:50 1024 30.24 853 25.19 12.6 54.7 45 1.2 34.2
02:55 1024 30.24 853 25.19 12.9 55.2 44 0.9 33.6
03:00 1024 30.24 853 25.19 13.1 55.5 44 1 33.8
03:05 1024 30.24 853 25.19 13.1 55.5 44 1.1 33.9
03:10 1024 30.24 853 25.19 13.2 55.7 44 1.1 34
03:15 1024 30.24 853 25.19 13.3 55.9 43 1 33.8
03:20 1024 30.24 853 25.19 13.4 56 42 0.9 33.7
03:25 1024 30.24 853 25.19 13.5 56.3 42 0.9 33.6
03:30 1024 30.24 853 25.19 13.3 55.9 44 1.5 34.7
03:35 1024 30.24 853 25.19 12.9 55.2 45 1.3 34.4
03:40 1024 30.24 853 25.19 12.9 55.3 45 1.3 34.3
03:45 1024 30.24 853 25.19 12.8 55.1 46 1.7 35.1
03:50 1024 30.24 853 25.19 12.4 54.2 48 1.7 35.1
03:55 1024 30.24 853 25.19 12.1 53.7 48 1.5 34.6
04:00 1024 30.24 853 25.19 12 53.7 48 1.3 34.4
04:05 1024 30.24 853 25.19 12.1 53.7 48 1.5 34.7
04:10 1024 30.24 853 25.19 11.8 53.3 50 1.7 35
04:15 1024 30.24 853 25.19 11.4 52.6 51 1.8 35.2
04:20 1024 30.24 853 25.19 11.3 52.4 51 1.6 34.8
04:25 1024 30.24 853 25.19 11.6 52.8 50 1.6 34.8
04:30 1024 30.24 853 25.19 11.6 52.9 50 1.6 35
04:35 1024 30.24 853 25.19 11.6 52.9 51 1.7 35.1
04:40 1024 30.24 853 25.19 11.6 52.9 49 1.5 34.6
04:45 1024 30.24 854 25.22 12 53.5 49 1.6 34.9
04:50 1024 30.24 854 25.22 11.9 53.3 49 1.6 34.9
04:55 1024 30.24 854 25.22 11.9 53.4 48 1.4 34.5
05:00 1024 30.24 854 25.22 12.1 53.7 48 1.5 34.7
05:05 1024 30.24 854 25.22 11.9 53.3 50 1.7 35.1
05:10 1024 30.24 854 25.22 11.7 53.1 49 1.5 34.6
05:15 1024 30.24 854 25.22 11.6 52.9 50 1.5 34.7
05:20 1024 30.24 854 25.22 11.4 52.4 51 1.5 34.8
05:25 1024 30.24 854 25.22 11.2 52.2 52 1.7 35
05:30 1024 30.24 854 25.22 11.2 52.1 52 1.6 34.9
05:35 1025 30.27 854 25.22 11 51.8 52 1.4 34.6
05:40 1025 30.27 854 25.22 11.2 52.2 50 1.1 34
05:45 1025 30.27 854 25.22 11.6 52.9 48 1.1 34
05:50 1025 30.27 854 25.22 12 53.6 47 1.1 34
05:55 1025 30.27 854 25.22 11.8 53.3 50 1.7 35
06:00 1025 30.27 854 25.22 11.1 52.1 53 1.9 35.4
06:05 1025 30.27 854 25.22 10.7 51.2 52 1.4 34.5
06:10 1025 30.27 854 25.22 11.1 51.9 51 1.3 34.4
06:15 1025 30.27 854 25.22 11.2 52.2 50 1.1 34
06:20 1025 30.27 854 25.22 11.5 52.7 48 1 33.9
06:25 1025 30.27 854 25.22 11.7 53.1 49 1.3 34.4
06:30 1025 30.27 854 25.22 11.7 53 49 1.4 34.5
06:35 1025 30.27 854 25.22 11.8 53.2 48 1.3 34.3
06:40 1025 30.27 854 25.22 12 53.5 48 1.5 34.6
06:45 1025 30.27 854 25.22 12 53.5 48 1.3 34.4
06:50 1025 30.27 854 25.22 12 53.5 49 1.5 34.7
06:55 1025 30.27 854 25.22 11.9 53.5 48 1.4 34.6
07:00 1025 30.27 854 25.22 12.2 53.9 47 1.3 34.3
07:05 1025 30.27 854 25.22 12.3 54.1 47 1.4 34.4
07:10 1025 30.27 854 25.22 12.4 54.3 46 1.1 34
07:15 1025 30.27 854 25.22 12.8 55 45 1.1 34
07:20 1025 30.27 854 25.22 13.2 55.7 43 0.9 33.6
07:25 1025 30.27 854 25.22 13.5 56.2 44 1.4 34.5
07:30 1025 30.27 854 25.22 13.4 56 44 1.5 34.7
07:35 1025 30.27 854 25.22 13.6 56.4 44 1.7 35.1
07:40 1025 30.27 854 25.22 13.6 56.4 44 1.6 34.9
07:45 1025 30.27 854 25.22 13.5 56.3 44 1.5 34.6
07:50 1025 30.27 854 25.22 13.7 56.7 43 1.6 34.9
07:55 1025 30.27 854 25.22 14.1 57.4 43 1.7 35
08:00 1025 30.27 854 25.22 14.3 57.8 43 1.9 35.3
08:05 1025 30.27 854 25.22 14.7 58.5 40 1.5 34.7
08:10 1025 30.27 854 25.22 14.4 57.9 42 1.7 35.1
08:15 1025 30.27 854 25.22 14.9 58.8 42 2 35.7
08:20 1025 30.27 854 25.22 15.5 59.9 41 2.4 36.4
08:25 1025 30.27 854 25.22 15.6 60.2 39 1.8 35.2
08:30 1025 30.27 854 25.22 15.8 60.5 40 2.2 36
08:35 1025 30.27 854 25.22 15.8 60.4 40 2.4 36.3
08:40 1025 30.27 854 25.22 15.8 60.4 39 2 35.5
08:45 1025 30.27 854 25.22 16 60.8 38 2 35.6
08:50 1025 30.27 854 25.22 16.7 62.1 36 1.8 35.2
08:55 1025 30.27 855 25.25 16.7 62.1 38 2.5 36.4
09:00 1025 30.27 855 25.25 16.6 61.8 34 0.8 33.5
09:05 1025 30.27 855 25.25 17 62.6 34 1.2 34.2
09:10 1025 30.27 855 25.25 17.7 63.9 35 2.3 36.2
09:15 1025 30.27 855 25.25 18.3 65 34 2.3 36.2
09:20 1025 30.27 855 25.25 18.4 65.1 34 2.3 36.2
09:25 1025 30.27 854 25.22 18.5 65.3 32 1.7 35.1
09:30 1025 30.27 854 25.22 18.7 65.7 32 2 35.6
09:35 1025 30.27 855 25.25 18.9 66.1 33 2.4 36.3
09:40 1025 30.27 855 25.25 19.1 66.4 33 2.6 36.7
09:45 1025 30.27 855 25.25 19.6 67.3 31 2.4 36.3
09:50 1025 30.27 855 25.25 20 67.9 31 2.6 36.8
09:55 1025 30.27 855 25.25 20.2 68.3 31 2.6 36.6
10:00 1025 30.27 855 25.25 20.6 69 30 2.8 37
10:05 1025 30.27 855 25.25 20.7 69.3 31 3.2 37.8
10:10 1025 30.27 855 25.25 20.2 68.3 32 3.3 38
10:15 1025 30.27 855 25.25 20.1 68.2 32 3 37.4
10:20 1026 30.3 855 25.25 20.6 69 32 3.6 38.4
10:25 1026 30.3 855 25.25 21.2 70.1 30 2.9 37.2
10:30 1026 30.3 855 25.25 21.2 70.1 31 3.4 38.1
10:35 1025 30.27 855 25.25 20.9 69.7 30 3.1 37.6
10:40 1025 30.27 855 25.25 21.4 70.5 30 3.4 38.1
10:45 1025 30.27 855 25.25 20.3 68.6 34 4 39.3
10:50 1025 30.27 855 25.25 20.6 69.1 31 3.2 37.8
10:55 1025 30.27 855 25.25 20.6 69 31 3.2 37.8
11:00 1025 30.27 854 25.22 20.2 68.4 31 2.6 36.7
11:05 1025 30.27 854 25.22 21.1 69.9 29 2.7 36.9
11:10 1025 30.27 854 25.22 21.6 70.9 29 3 37.3
11:15 1025 30.27 854 25.22 22.1 71.7 29 3.3 37.9
11:20 1025 30.27 854 25.22 21.5 70.6 29 3.1 37.6
11:25 1025 30.27 854 25.22 21.2 70.2 28 2.4 36.2
11:30 1025 30.27 854 25.22 21.6 71 30 3.6 38.6
11:35 1025 30.27 854 25.22 21.3 70.4 30 3.2 37.8
11:40 1025 30.27 854 25.22 22.1 71.9 29 3.6 38.4
11:45 1025 30.27 854 25.22 22.5 72.4 29 3.6 38.6
11:50 1025 30.27 854 25.22 22.4 72.3 30 4.2 39.6
11:55 1025 30.27 854 25.22 21.9 71.3 30 3.9 39.1
12:00 1025 30.27 854 25.22 21.7 71.1 28 2.8 37.1
12:05 1025 30.27 854 25.22 21.7 71 30 3.8 38.8
12:10 1025 30.27 854 25.22 21.8 71.2 30 3.6 38.4
12:15 1025 30.27 854 25.22 22.4 72.3 29 3.7 38.6
12:20 1025 30.27 854 25.22 22.9 73.3 28 3.4 38.2
12:25 1025 30.27 854 25.22 22.9 73.3 29 3.9 39.1
12:30 1025 30.27 854 25.22 22.7 72.8 29 4.2 39.5
12:35 1025 30.27 854 25.22 21.6 70.8 32 4.4 39.8
12:40 1025 30.27 854 25.22 22.2 72 29 3.6 38.4
12:45 1025 30.27 854 25.22 22.4 72.4 31 4.5 40
12:50 1024 30.24 854 25.22 23.4 74 28 3.9 39
12:55 1024 30.24 854 25.22 23.9 75.1 28 4.6 40.2
13:00 1024 30.24 854 25.22 24 75.2 27 3.8 38.9
13:05 1024 30.24 854 25.22 24.4 75.9 26 4.1 39.4
13:10 1024 30.24 854 25.22 23.9 75 27 3.9 39.1
13:15 1024 30.24 854 25.22 24.3 75.7 27 4.3 39.7
13:20 1024 30.24 853 25.19 24.4 75.9 26 4 39.2
13:25 1024 30.24 853 25.19 23.6 74.6 28 4.2 39.6
13:30 1024 30.24 853 25.19 22.7 72.8 28 3.6 38.4
13:35 1024 30.24 853 25.19 22.5 72.4 28 3.1 37.7
13:40 1024 30.24 853 25.19 23.3 73.9 27 3.5 38.3
13:45 1024 30.24 853 25.19 23.1 73.5 27 3 37.5
13:50 1024 30.24 853 25.19 23.9 75.1 26 3.2 37.8
13:55 1024 30.24 853 25.19 24.5 76.2 24 3.2 37.7
14:00 1024 30.24 853 25.19 24.9 76.7 24 3.2 37.7
14:05 1024 30.24 853 25.19 25.6 78 23 3.3 37.9
14:10 1024 30.24 853 25.19 25.6 78.1 24 3.8 38.9
14:15 1024 30.24 853 25.19 25.6 78.1 21 1.9 35.4
14:20 1024 30.24 853 25.19 25.8 78.4 22 2.5 36.4
14:25 1024 30.24 853 25.19 25.6 78.1 22 2.6 36.6
14:30 1024 30.24 853 25.19 25.7 78.3 22 2.8 37
14:35 1023 30.21 853 25.19 25.8 78.5 21 2.4 36.4
14:40 1023 30.21 853 25.19 26.2 79.2 21 2.7 36.9
14:45 1023 30.21 853 25.19 26.5 79.8 21 2.9 37.2
14:50 1023 30.21 853 25.19 26.3 79.3 22 2.9 37.2
14:55 1023 30.21 852 25.16 26.3 79.4 22 3 37.5
15:00 1023 30.21 852 25.16 26.5 79.7 21 2.6 36.7
15:05 1023 30.21 852 25.16 26.7 80 20 2.4 36.3
15:10 1023 30.21 852 25.16 26.2 79.2 21 2.7 36.9
15:15 1023 30.21 852 25.16 25.8 78.5 22 2.9 37.3
15:20 1023 30.21 852 25.16 25.3 77.6 22 2.5 36.5
15:25 1023 30.21 852 25.16 26 78.8 21 2.3 36.2
15:30 1023 30.21 852 25.16 26.6 79.9 21 2.4 36.4
15:35 1023 30.21 852 25.16 27 80.5 20 2.5 36.6
15:40 1023 30.21 852 25.16 27.1 80.7 20 2.3 36.1
15:45 1023 30.21 852 25.16 27.4 81.3 21 3.2 37.7
15:50 1023 30.21 852 25.16 26.9 80.4 23 4.1 39.5
15:55 1023 30.21 852 25.16 26.3 79.4 24 4.3 39.8
16:00 1023 30.21 852 25.16 25.9 78.6 25 4.6 40.4
16:05 1023 30.21 852 25.16 25.5 78 27 5.4 41.7
16:10 1023 30.21 852 25.16 25.5 77.9 25 4.4 40
16:15 1023 30.21 852 25.16 25.4 77.8 25 4 39.1
16:20 1023 30.21 852 25.16 25.6 78 24 3.8 38.8
16:25 1023 30.21 852 25.16 25.4 77.8 25 4.3 39.8
16:30 1023 30.21 852 25.16 25.7 78.2 24 3.8 38.8
16:35 1023 30.21 852 25.16 25.3 77.5 25 4.1 39.4
16:40 1023 30.21 852 25.16 24.8 76.7 26 4.2 39.5
16:45 1023 30.21 852 25.16 24.5 76 26 3.8 38.9
16:50 1023 30.21 852 25.16 24 75.1 27 4.1 39.4
16:55 1023 30.21 852 25.16 23.8 74.8 27 3.9 39.1
17:00 1023 30.21 852 25.16 23.7 74.6 27 3.9 39
17:05 1023 30.21 852 25.16 23.8 74.8 27 3.9 39.1
17:10 1023 30.21 852 25.16 23.7 74.6 28 4.1 39.3
17:15 1023 30.21 852 25.16 23.5 74.3 29 4.6 40.3
17:20 1023 30.21 852 25.16 23.3 74 28 4.1 39.4
17:25 1023 30.21 852 25.16 23.4 74 30 5.2 41.3
17:30 1023 30.21 852 25.16 23.3 73.9 29 4.4 39.9
17:35 1023 30.21 852 25.16 23.3 73.9 31 5.3 41.5
17:40 1023 30.21 852 25.16 23.1 73.5 32 5.5 41.9
17:45 1023 30.21 852 25.16 22.6 72.6 35 6.3 43.4
17:50 1023 30.21 852 25.16 22.1 71.8 40 8.1 46.5
17:55 1023 30.21 852 25.16 21.3 70.3 42 8.2 46.7
18:00 1023 30.21 852 25.16 20.5 68.8 46 8.5 47.2
18:05 1023 30.21 852 25.16 19.9 67.8 48 8.6 47.5
18:10 1023 30.21 852 25.16 19.7 67.4 49 8.9 48
18:15 1023 30.21 852 25.16 19.4 67 48 8.3 47
18:20 1023 30.21 852 25.16 19.3 66.7 48 8.1 46.6
18:25 1023 30.21 852 25.16 19.1 66.4 43 6.4 43.5
18:30 1023 30.21 852 25.16 18.9 66.1 45 7 44.6
18:35 1023 30.21 852 25.16 19.1 66.3 39 4.9 40.9
18:40 1023 30.21 852 25.16 19.6 67.3 37 4.8 40.6
18:45 1023 30.21 852 25.16 19.3 66.7 40 5.4 41.6
18:50 1023 30.21 852 25.16 19.2 66.5 41 5.7 42.2
18:55 1023 30.21 852 25.16 18.9 66.1 39 4.8 40.6
19:00 1023 30.21 852 25.16 18.9 66.1 37 3.9 39.1
19:05 1023 30.21 852 25.16 18.8 65.8 37 4 39.1
19:10 1023 30.21 852 25.16 18.8 65.8 37 3.9 39
19:15 1023 30.21 852 25.16 18.5 65.3 34 2.4 36.4
19:20 1023 30.21 852 25.16 18.5 65.4 32 1.8 35.3
19:25 1023 30.21 852 25.16 18.8 65.8 33 2.4 36.3
19:30 1023 30.21 852 25.16 18.7 65.7 32 1.7 35.1
19:35 1023 30.21 852 25.16 19.1 66.4 31 1.9 35.4
19:40 1023 30.21 852 25.16 19 66.2 33 2.5 36.5
19:45 1023 30.21 852 25.16 18.5 65.4 35 3 37.4
19:50 1023 30.21 852 25.16 18.1 64.5 36 2.9 37.2
19:55 1023 30.21 852 25.16 17.9 64.3 36 2.7 36.8
20:00 1023 30.21 852 25.16 18.1 64.7 35 2.5 36.5
20:05 1023 30.21 852 25.16 18.3 65 36 3 37.4
20:10 1023 30.21 852 25.16 18.5 65.3 34 2.3 36.1
20:15 1023 30.21 852 25.16 18.4 65.2 34 2.4 36.4
20:20 1023 30.21 852 25.16 18.5 65.2 33 1.9 35.5
20:25 1023 30.21 852 25.16 18.3 65 33 1.8 35.3
20:30 1023 30.21 852 25.16 18.3 64.9 32 1.6 34.8
20:35 1023 30.21 852 25.16 18.5 65.2 32 1.5 34.8
20:40 1023 30.21 852 25.16 18.4 65.1 32 1.7 35.1
20:45 1023 30.21 852 25.16 18.3 64.9 32 1.5 34.7
20:50 1023 30.21 852 25.16 18.2 64.7 32 1.3 34.4
20:55 1023 30.21 852 25.16 17.9 64.3 32 1.1 34
21:00 1023 30.21 852 25.16 17.8 64 35 2.4 36.4
21:05 1023 30.21 852 25.16 17.6 63.7 31 0.6 33.1
21:10 1023 30.21 852 25.16 17.5 63.5 31 0.3 32.5
21:15 1023 30.21 852 25.16 17.4 63.2 30 -0.1 31.8
21:20 1023 30.21 852 25.16 17.6 63.7 28 -0.8 30.6
21:25 1023 30.21 852 25.16 18.2 64.7 27 -1 30.3
21:30 1023 30.21 852 25.16 18.4 65 26 -1.5 29.3
21:35 1023 30.21 852 25.16 18.5 65.2 26 -1 30.1
21:40 1023 30.21 852 25.16 18.3 64.9 26 -1.4 29.6
21:45 1023 30.21 852 25.16 17.8 64 29 -0.5 31
21:50 1023 30.21 852 25.16 17.4 63.3 27 -1.8 28.7
21:55 1023 30.21 852 25.16 18.2 64.7 24 -2.3 27.8
22:00 1023 30.21 852 25.16 18.4 65 27 -0.7 30.7
22:05 1023 30.21 852 25.16 18.1 64.5 26 -1.6 29.2
22:10 1023 30.21 852 25.16 18.1 64.6 27 -1.2 29.9
22:15 1023 30.21 852 25.16 17.6 63.7 28 -0.9 30.3
22:20 1023 30.21 852 25.16 17.3 63.2 29 -0.9 30.4
22:25 1023 30.21 852 25.16 17.1 62.7 29 -1 30.1
22:30 1023 30.21 852 25.16 17 62.6 28 -1.4 29.5
22:35 1023 30.21 852 25.16 16.7 62 28 -2 28.4
22:40 1023 30.21 852 25.16 16.7 62 27 -2.1 28.3
22:45 1023 30.21 852 25.16 16.8 62.2 28 -2 28.5
22:50 1023 30.21 852 25.16 16.8 62.2 27 -2.4 27.7
22:55 1023 30.21 852 25.16 16.9 62.4 26 -2.6 27.4
23:00 1023 30.21 852 25.16 17.2 63 26 -2.6 27.3
23:05 1023 30.21 852 25.16 17.1 62.8 26 -2.3 27.8
23:10 1023 30.21 852 25.16 16.9 62.3 27 -2.2 28.1
23:15 1023 30.21 852 25.16 16.7 62 27 -2.3 27.8
23:20 1023 30.21 852 25.16 16.9 62.4 26 -2.5 27.5
23:25 1023 30.21 852 25.16 17 62.6 26 -2.3 27.8
23:30 1023 30.21 852 25.16 16.9 62.5 27 -2.3 27.9
23:35 1023 30.21 852 25.16 16.7 62 28 -2 28.4
23:40 1023 30.21 852 25.16 16.3 61.3 27 -2.5 27.5
23:45 1023 30.21 852 25.16 16.3 61.3 28 -2.4 27.8
23:50 1023 30.21 852 25.16 16.4 61.5 27 -2.8 27
23:55 1023 30.21 852 25.16 16.6 61.8 27 -2.4 27.7
24:00 1023 30.21 852 25.16 16.4 61.6 27 -2.7 27.1